Hewlett, New York
Current Conditions -  °F | °C
As of 6:51 AM on Sunday 25 Jan 2015 (Local Time) from KJFK Reporting Station
Overcast Overcast  
Wind Chill: 25°   Ceiling: 6000
Heat Index: 35°   Visibility: 10mi
Dew Point: 26°   Wind: 17mph
Humidity: 70%   Direction: 260°W
Pressure: 29.67"   Gusts: NA
Location:  40.64°N, 73.7°W
Report Text: KJFK 251151Z 26015KT 10SM OVC060 02/M03 A2967 RMK AO2 SLP048 70009 T00171033 10028 20011 51026 $
Loading
Personal Weather Stations






























Interactive Weather Map New forecast layout! Learn more

10-Day Weather Forecast

Advertisements
Track Severe Weather on mobile